Flight Track Log - Related Links

Times and Time Zones

All times are in EDT time to prevent confusion due to time zone crossing. See the N30TL flight status page for this flight to view local times or setup timezone preferences in your user account.

Time Position Orientation Groundspeed Altitude Reporting Facility
EDT Latitude Longitude Course Direction KTS MPH feet Rate Location/Type
Sun 03:48:24 PM 30.5486 -96.3517 165° South 205 236 2,500  Level Houston Center
Sun 03:49:26 PM 30.4683 -96.3581 184° South 248 285 6,100 3,435 Climbing Houston Center
Sun 03:50:28 PM 30.3925 -96.3781 193° South 273 314 9,600 3,290 Climbing Houston Center
Sun 03:51:30 PM 30.3150 -96.3983 193° South 280 322 12,900 2,710 Climbing Houston Center
Sun 03:52:32 PM 30.2278 -96.4192 192° South 309 356 15,200 1,952 Climbing Houston Center
Sun 03:53:36 PM 30.1300 -96.4444 193° South 347 399 17,000 871 Climbing Houston Center
Sun 03:54:36 PM 30.0286 -96.4697 192° South 389 448 17,000 393 Level Houston Center
Sun 03:55:38 PM 29.8931 -96.5042 192° South 412 474 17,800 1,248 Climbing Houston Center
Sun 03:56:41 PM 29.7811 -96.5314 192° South 411 473 19,600 1,776 Climbing Houston Center
Sun 03:57:43 PM 29.6708 -96.5592 192° South 406 467 21,500 1,161 Climbing Houston Center
Sun 03:58:45 PM 29.5561 -96.5897 193° South 417 480 22,000 242 Climbing Houston Center
Sun 03:59:47 PM 29.4453 -96.6492 205° Southwest 434 499 22,000  Level Houston Center
Sun 04:00:49 PM 29.3306 -96.7081 204° Southwest 442 509 22,000  Level Houston Center
Sun 04:01:51 PM 29.2161 -96.7667 204° Southwest 439 505 22,000  Level Houston Center
Sun 04:02:53 PM 29.1044 -96.8242 204° Southwest 436 502 22,000  Level Houston Center
Sun 04:03:55 PM 28.9733 -96.8925 205° Southwest 429 494 22,000  Level Houston Center
Sun 04:04:57 PM 28.8636 -96.9494 204° Southwest 432 497 22,000 -48 Level Houston Center
Sun 04:05:59 PM 28.7544 -97.0044 204° Southwest 429 494 21,900 -1,008 Descending Houston Center
Sun 04:07:02 PM 28.6486 -97.0583 204° Southwest 418 481 19,900 -2,160 Descending Houston Center
Sun 04:08:04 PM 28.5461 -97.1097 204° Southwest 406 467 17,400 -2,419 Descending Houston Center
Sun 04:09:06 PM 28.4450 -97.1628 205° Southwest 401 461 14,900 -2,661 Descending Houston Center
Sun 04:09:59 PM 28.3422 -97.2147 204° Southwest 386 444 12,300 -2,368 Descending Houston Center
Sun 04:11:00 PM 28.2597 -97.2692 210° Southwest 324 373 10,400 -1,623 Descending Houston Center
Sun 04:12:01 PM 28.2028 -97.3269 222° Southwest 285 328 9,000 -1,406 Descending Houston Center
Sun 04:13:08 PM 28.1389 -97.3953 223° Southwest 283 326 7,400 -1,266 Descending Houston Center
Sun 04:14:09 PM 28.0800 -97.4556 222° Southwest 274 315 6,300 -1,148 Descending Houston Center
Sun 04:15:03 PM 28.0311 -97.5075 223° Southwest 271 312 5,200 -1,130 Descending Houston Center
Sun 04:15:18 PM 28.0267 -97.5108 214° Southwest 270 311 5,000 -1,247 Descending Houston Center
Sun 04:16:20 PM 27.9664 -97.5678 220° Southwest 277 319 3,600 -1,487 Descending Houston Center
Sun 04:17:11 PM 27.8950 -97.5736 184° South 245 282 2,200 -804 Descending Houston Center
Sun 04:18:12 PM 27.8397 -97.5669 174° South 196 226 2,100 -541 Descending Houston Center
Sun 04:19:13 PM 27.8083 -97.5497 154° Southeast 127 146 1,100 -984 Descending Houston Center
Sun 04:21:00 PM 27.7667 -97.5000 214° Southwest  Level FlightAware Approximate
Sun 04:28:00 PM 27.7704 -97.5012 214° Southwest  Level Estimated

Login

Don't have an account? Register now (free) for customized features, flight alerts, and more!